Sachse's Hourly Summary for Friday, May 11, 2018
Hour Temp
(f)
RH
(%)
Solar Rad.
(MJ/m2)
Rainfall
(in)
Wind
(mph)
5/11/2018 12:00 AM 74 58 0 0 6.47
5/11/2018 1:00 AM 73 59 0 0 7.78
5/11/2018 2:00 AM 72 63 0 0 8.59
5/11/2018 3:00 AM 71 67 0 0 8.66
5/11/2018 4:00 AM 70 71 0 0 9.14
5/11/2018 5:00 AM 69 75 0 0 8.64
5/11/2018 6:00 AM 69 80 0 0 8.87
5/11/2018 7:00 AM 68 83 0.02 0 7.84
5/11/2018 8:00 AM 69 80 0.39 0 8.58
5/11/2018 9:00 AM 71 73 0.73 0 9.82
5/11/2018 10:00 AM 74 64 1.48 0 10.57
5/11/2018 11:00 AM 76 58 2.31 0 12.37
5/11/2018 12:00 PM 79 53 2.92 0 13.93
5/11/2018 1:00 PM 81 49 2.48 0 11.65
5/11/2018 2:00 PM 82 45 2.41 0 11.59
5/11/2018 3:00 PM 83 44 2.16 0 11.73
5/11/2018 4:00 PM 85 41 2.73 0 12.02
5/11/2018 5:00 PM 85 41 2.14 0 11.8
5/11/2018 6:00 PM 85 40 0.7 0 11.32
5/11/2018 7:00 PM 85 41 0.7 0 9.94
5/11/2018 8:00 PM 83 46 0.31 0 9.03
5/11/2018 9:00 PM 80 47 0.01 0 6.86
5/11/2018 10:00 PM 78 52 0 0 5.48
5/11/2018 11:00 PM 76 57 0 0 6.08
Data Summary 76 57 21.49 0.00 9.53